Time;durP1;ratioP1;P1;durP2;ratioP2;P2;SDS_P1;SDS_P2;PMS_P1;PMS_P2;Temp;Humidity;BMP_temperature;BMP_pressure;BME280_temperature;BME280_humidity;BME280_pressure;Samples;Min_cycle;Max_cycle;Signal;HPM_P1;HPM_P2
2023/07/08 00:02:12;;;;;;;10.38;3.58;;;15.00;99.90;;;;;;5089754;28;20761;-79
2023/07/08 00:04:40;;;;;;;4.88;3.83;;;14.90;99.90;;;;;;5093511;28;20194;-79
2023/07/08 00:07:12;;;;;;;9.32;3.75;;;14.90;99.90;;;;;;5099062;28;20288;-79
2023/07/08 00:09:39;;;;;;;4.03;3.45;;;15.10;99.90;;;;;;5097806;28;20202;-79
2023/07/08 00:12:10;;;;;;;5.32;3.55;;;15.10;99.90;;;;;;5096058;28;20229;-79
2023/07/08 00:14:37;;;;;;;5.90;3.70;;;15.10;99.90;;;;;;5089744;28;20234;-79
2023/07/08 00:17:11;;;;;;;4.95;3.50;;;15.40;99.90;;;;;;5088760;28;20208;-79
2023/07/08 00:19:38;;;;;;;7.35;3.83;;;15.40;99.90;;;;;;5085880;28;20202;-79
2023/07/08 00:22:11;;;;;;;3.75;2.80;;;15.30;99.90;;;;;;5093281;28;20221;-80
2023/07/08 00:24:40;;;;;;;5.95;2.90;;;14.90;99.90;;;;;;5094999;28;20208;-80
2023/07/08 00:27:10;;;;;;;7.07;2.92;;;14.70;99.90;;;;;;5093163;28;20208;-80
2023/07/08 00:29:37;;;;;;;4.70;3.28;;;14.80;99.90;;;;;;5088931;28;20230;-80
2023/07/08 00:32:12;;;;;;;4.85;3.53;;;14.90;99.90;;;;;;5098420;28;20236;-80
2023/07/08 00:34:39;;;;;;;6.68;3.35;;;14.70;99.90;;;;;;5094175;28;20690;-80
2023/07/08 00:37:06;;;;;;;5.53;3.47;;;14.40;99.90;;;;;;5088439;28;20273;-80
2023/07/08 00:39:33;;;;;;;6.95;3.80;;;14.50;99.90;;;;;;5089353;28;20585;-80
2023/07/08 00:42:01;;;;;;;8.20;3.63;;;14.70;99.90;;;;;;5097554;28;20232;-80
2023/07/08 00:44:28;;;;;;;6.82;3.70;;;14.90;99.90;;;;;;5088193;28;20194;-79
2023/07/08 00:47:02;;;;;;;5.47;4.13;;;15.00;99.90;;;;;;5091595;28;20195;-80
2023/07/08 00:49:39;;;;;;;7.43;3.65;;;15.10;99.90;;;;;;5090550;28;20211;-80
2023/07/08 00:52:24;;;;;;;9.75;3.53;;;15.00;99.90;;;;;;5093008;28;20217;-79
2023/07/08 00:54:52;;;;;;;6.22;3.22;;;14.40;99.90;;;;;;5088105;28;20221;-80
2023/07/08 00:57:20;;;;;;;7.45;3.58;;;14.00;99.90;;;;;;5088720;28;20672;-79
2023/07/08 00:59:51;;;;;;;6.10;3.67;;;14.10;99.90;;;;;;5090495;28;20661;-79
2023/07/08 01:02:22;;;;;;;6.53;3.45;;;14.40;99.90;;;;;;5090470;28;20221;-80
2023/07/08 01:04:54;;;;;;;6.47;3.40;;;14.70;99.90;;;;;;5097845;28;20225;-80
2023/07/08 01:07:22;;;;;;;7.20;4.00;;;14.50;99.90;;;;;;5097081;28;20206;-79
2023/07/08 01:09:53;;;;;;;7.35;3.58;;;14.50;99.90;;;;;;5092773;28;20202;-80
2023/07/08 01:12:24;;;;;;;5.22;3.47;;;14.50;99.90;;;;;;5095683;28;20225;-80
2023/07/08 01:14:54;;;;;;;5.88;3.45;;;14.10;99.90;;;;;;5090320;28;20220;-80
2023/07/08 01:17:22;;;;;;;7.72;3.33;;;13.80;99.90;;;;;;5094583;28;20202;-80
2023/07/08 01:19:51;;;;;;;7.40;3.67;;;14.00;99.90;;;;;;5085499;28;20204;-80
2023/07/08 01:22:19;;;;;;;5.18;3.60;;;14.10;99.90;;;;;;5087800;28;20229;-80
2023/07/08 01:24:47;;;;;;;12.18;4.40;;;14.00;99.90;;;;;;5094515;28;20687;-80
2023/07/08 01:27:17;;;;;;;5.18;3.78;;;14.20;99.90;;;;;;5081673;28;20637;-80
2023/07/08 01:29:44;;;;;;;5.07;3.60;;;14.30;99.90;;;;;;5086272;28;20194;-80
2023/07/08 01:32:17;;;;;;;5.65;3.72;;;14.30;99.90;;;;;;5085752;28;20222;-81
2023/07/08 01:34:59;;;;;;;9.82;3.92;;;14.30;99.90;;;;;;5089418;28;20213;-80
2023/07/08 01:37:30;;;;;;;4.57;3.33;;;14.30;99.90;;;;;;5086877;28;20218;-80
2023/07/08 01:39:57;;;;;;;4.28;3.65;;;14.40;99.90;;;;;;5087483;28;20198;-80
2023/07/08 01:42:24;;;;;;;12.23;5.10;;;14.50;99.90;;;;;;5086734;28;20594;-80
2023/07/08 01:44:52;;;;;;;5.30;3.67;;;14.50;99.90;;;;;;5092456;28;20196;-80
2023/07/08 01:47:23;;;;;;;10.65;3.60;;;14.10;99.90;;;;;;5096189;28;20223;-80
2023/07/08 01:49:49;;;;;;;9.80;3.75;;;14.00;99.90;;;;;;5090197;28;20709;-79
2023/07/08 01:52:18;;;;;;;8.32;3.70;;;13.80;99.90;;;;;;5079511;28;20212;-79
2023/07/08 01:54:55;;;;;;;13.35;4.25;;;13.80;99.90;;;;;;5088017;28;20290;-79
2023/07/08 01:57:21;;;;;;;6.03;3.42;;;13.50;99.90;;;;;;5092009;28;20198;-79
2023/07/08 01:59:48;;;;;;;15.85;4.43;;;13.70;99.90;;;;;;5092392;28;20201;-79
2023/07/08 02:02:15;;;;;;;9.13;4.10;;;13.90;99.90;;;;;;5091213;28;20325;-80
2023/07/08 02:04:42;;;;;;;6.70;3.70;;;14.10;99.90;;;;;;5090156;28;20204;-79
2023/07/08 02:07:09;;;;;;;7.72;3.83;;;14.00;99.90;;;;;;5091107;28;20625;-79
2023/07/08 02:09:35;;;;;;;11.52;4.70;;;13.50;99.90;;;;;;5086194;28;20269;-79
2023/07/08 02:12:04;;;;;;;9.52;4.63;;;13.60;99.90;;;;;;5090280;28;20228;-79
2023/07/08 02:14:31;;;;;;;9.77;3.83;;;13.60;99.90;;;;;;5091287;28;20213;-80
2023/07/08 02:16:58;;;;;;;7.38;4.13;;;13.70;99.90;;;;;;5091428;28;20206;-80
2023/07/08 02:19:25;;;;;;;7.40;3.90;;;13.90;99.90;;;;;;5092029;28;21977;-80
2023/07/08 02:21:52;;;;;;;10.13;4.30;;;14.00;99.90;;;;;;5083979;28;20274;-80
2023/07/08 02:24:19;;;;;;;13.30;5.50;;;13.70;99.90;;;;;;5088810;28;20199;-79
2023/07/08 02:26:47;;;;;;;10.55;3.45;;;13.40;99.90;;;;;;5095520;28;20225;-79
2023/07/08 02:29:15;;;;;;;10.40;3.88;;;13.30;99.90;;;;;;5092281;28;20289;-81
2023/07/08 02:31:42;;;;;;;9.18;4.47;;;13.50;99.90;;;;;;5090194;28;20308;-80
2023/07/08 02:34:08;;;;;;;6.85;4.07;;;13.80;99.90;;;;;;5092167;28;20209;-81
2023/07/08 02:36:36;;;;;;;11.20;4.22;;;13.90;99.90;;;;;;5093077;28;20218;-80
2023/07/08 02:39:03;;;;;;;14.10;4.57;;;13.50;99.90;;;;;;5095021;28;20201;-80
2023/07/08 02:41:30;;;;;;;10.43;4.50;;;13.10;99.90;;;;;;5096385;28;20583;-80
2023/07/08 02:43:57;;;;;;;11.33;4.57;;;12.90;99.90;;;;;;5099066;28;20875;-79
2023/07/08 02:46:25;;;;;;;11.83;4.37;;;12.90;99.90;;;;;;5093137;28;20198;-80
2023/07/08 02:48:51;;;;;;;10.77;4.53;;;13.30;99.90;;;;;;5086700;28;20202;-80
2023/07/08 02:51:18;;;;;;;11.70;4.43;;;13.20;99.90;;;;;;5093893;28;20235;-80
2023/07/08 02:53:45;;;;;;;10.15;4.13;;;13.30;99.90;;;;;;5092371;28;20289;-79
2023/07/08 02:56:12;;;;;;;16.40;4.45;;;13.00;99.90;;;;;;5091513;28;20210;-79
2023/07/08 02:58:38;;;;;;;14.50;4.50;;;12.70;99.90;;;;;;5094099;28;20677;-79
2023/07/08 03:01:06;;;;;;;14.27;4.57;;;12.60;99.90;;;;;;5096728;28;20358;-79
2023/07/08 03:03:35;;;;;;;8.25;4.78;;;12.80;99.90;;;;;;5096786;28;20206;-80
2023/07/08 03:06:05;;;;;;;9.93;5.33;;;13.00;99.90;;;;;;5097077;28;20287;-79
2023/07/08 03:08:32;;;;;;;14.32;5.22;;;13.00;99.90;;;;;;5100472;28;20259;-78
2023/07/08 03:11:00;;;;;;;13.53;6.87;;;13.00;99.90;;;;;;5096893;28;20252;-79
2023/07/08 03:13:28;;;;;;;10.77;4.63;;;13.20;99.90;;;;;;5098140;28;20206;-78
2023/07/08 03:15:55;;;;;;;9.82;5.20;;;13.20;99.90;;;;;;5088858;28;20656;-79
2023/07/08 03:18:23;;;;;;;11.67;4.50;;;13.10;99.90;;;;;;5098837;28;20209;-78
2023/07/08 03:20:51;;;;;;;10.67;4.33;;;13.10;99.90;;;;;;5090691;28;20202;-78
2023/07/08 03:23:18;;;;;;;13.07;4.67;;;13.20;99.90;;;;;;5097234;28;20675;-80
2023/07/08 03:25:45;;;;;;;13.17;5.17;;;13.20;99.90;;;;;;5097874;28;20289;-81
2023/07/08 03:28:14;;;;;;;12.32;5.75;;;13.20;99.90;;;;;;5090988;28;20549;-79
2023/07/08 03:30:42;;;;;;;10.20;5.03;;;13.70;99.90;;;;;;5097202;28;20210;-79
2023/07/08 03:33:09;;;;;;;8.80;4.97;;;13.70;99.90;;;;;;5090099;28;20198;-81
2023/07/08 03:35:37;;;;;;;8.02;5.10;;;13.60;99.90;;;;;;5095272;28;20285;-79
2023/07/08 03:38:05;;;;;;;10.03;5.23;;;13.80;99.90;;;;;;5091400;28;20202;-79
2023/07/08 03:40:32;;;;;;;9.23;4.60;;;14.00;99.90;;;;;;5090266;28;20201;-79
2023/07/08 03:42:59;;;;;;;9.90;4.95;;;14.10;99.90;;;;;;5091398;28;20228;-80
2023/07/08 03:45:26;;;;;;;12.52;5.20;;;14.10;99.90;;;;;;5092181;28;20208;-80
2023/07/08 03:47:53;;;;;;;10.18;4.70;;;14.10;99.90;;;;;;5096207;28;20224;-80
2023/07/08 03:50:22;;;;;;;10.73;5.03;;;14.20;99.90;;;;;;5096083;28;20721;-79
2023/07/08 03:52:52;;;;;;;8.15;5.13;;;14.20;99.90;;;;;;5089032;28;20225;-79
2023/07/08 03:55:20;;;;;;;8.75;5.20;;;14.30;99.90;;;;;;5088316;28;20230;-80
2023/07/08 03:57:47;;;;;;;8.73;4.90;;;14.60;99.90;;;;;;5090740;28;20289;-78
2023/07/08 04:00:15;;;;;;;8.40;4.70;;;14.50;99.90;;;;;;5094075;28;20198;-78
2023/07/08 04:02:43;;;;;;;9.18;5.00;;;14.50;99.90;;;;;;5090417;28;20229;-80
2023/07/08 04:05:14;;;;;;;7.35;4.63;;;14.80;99.90;;;;;;5089291;28;20205;-80
2023/07/08 04:07:41;;;;;;;11.05;4.60;;;14.90;99.90;;;;;;5100093;28;20623;-80
2023/07/08 04:10:09;;;;;;;14.82;4.65;;;14.90;99.90;;;;;;5093210;28;20193;-81
2023/07/08 04:12:37;;;;;;;15.82;4.68;;;15.00;99.90;;;;;;5092579;28;20229;-80
2023/07/08 04:15:05;;;;;;;9.60;4.38;;;15.20;99.90;;;;;;5092613;28;20198;-81
2023/07/08 04:17:32;;;;;;;9.57;4.40;;;15.50;99.90;;;;;;5089834;28;20261;-80
2023/07/08 04:20:01;;;;;;;13.25;4.75;;;15.70;99.90;;;;;;5087472;28;20202;-80
2023/07/08 04:22:28;;;;;;;10.98;4.72;;;16.00;99.90;;;;;;5094837;28;20226;-80
2023/07/08 04:24:55;;;;;;;9.30;4.68;;;17.40;99.90;;;;;;5089444;28;20680;-79
2023/07/08 04:27:22;;;;;;;7.95;4.60;;;18.50;99.90;;;;;;5088445;28;20217;-78
2023/07/08 04:29:50;;;;;;;6.55;5.07;;;19.40;99.90;;;;;;5089950;28;20265;-79
2023/07/08 04:32:17;;;;;;;5.70;4.18;;;18.90;99.90;;;;;;5092511;28;20224;-79
2023/07/08 04:34:43;;;;;;;9.75;4.47;;;18.10;99.90;;;;;;5096043;28;20206;-79
2023/07/08 04:37:12;;;;;;;13.88;4.43;;;17.20;99.90;;;;;;5092339;28;20296;-79
2023/07/08 04:39:39;;;;;;;6.93;4.38;;;16.50;99.90;;;;;;5092819;28;20221;-79
2023/07/08 04:42:06;;;;;;;6.53;4.60;;;16.10;99.90;;;;;;5092325;28;20213;-78
2023/07/08 04:44:33;;;;;;;6.13;4.82;;;16.00;99.90;;;;;;5096718;28;20201;-78
2023/07/08 04:47:02;;;;;;;6.78;4.55;;;16.20;99.90;;;;;;5091083;28;20194;-79
2023/07/08 04:49:33;;;;;;;7.53;4.78;;;16.60;99.90;;;;;;5091518;28;20204;-78
2023/07/08 04:52:01;;;;;;;7.20;4.88;;;16.30;99.90;;;;;;5093147;28;20563;-79
2023/07/08 04:54:28;;;;;;;7.00;4.72;;;16.30;99.90;;;;;;5092753;28;20206;-80
2023/07/08 04:56:55;;;;;;;8.98;4.82;;;16.20;99.90;;;;;;5085180;28;20706;-78
2023/07/08 04:59:24;;;;;;;7.63;4.82;;;16.50;99.90;;;;;;5092709;28;20229;-78
2023/07/08 05:01:53;;;;;;;7.15;5.20;;;16.40;99.90;;;;;;5090049;28;20217;-79
2023/07/08 05:04:23;;;;;;;5.65;4.72;;;16.70;99.90;;;;;;5094291;28;20223;-78
2023/07/08 05:06:50;;;;;;;10.50;5.50;;;16.60;99.90;;;;;;5089880;28;20287;-78
2023/07/08 05:09:17;;;;;;;10.80;4.97;;;16.50;99.90;;;;;;5085021;28;20212;-78
2023/07/08 05:11:44;;;;;;;10.15;5.22;;;16.70;99.90;;;;;;5098470;28;20236;-78
2023/07/08 05:14:13;;;;;;;8.82;5.30;;;16.70;99.90;;;;;;5098079;28;20236;-80
2023/07/08 05:16:40;;;;;;;9.27;5.60;;;16.70;99.90;;;;;;5092452;28;20645;-80
2023/07/08 05:19:07;;;;;;;9.45;5.43;;;16.90;99.90;;;;;;5087644;28;20197;-78
2023/07/08 05:21:35;;;;;;;7.05;5.07;;;16.80;99.90;;;;;;5092203;28;20289;-78
2023/07/08 05:24:03;;;;;;;7.65;5.15;;;16.80;99.90;;;;;;5092114;28;20186;-78
2023/07/08 05:26:30;;;;;;;10.02;5.63;;;16.80;99.90;;;;;;5084316;28;20289;-78
2023/07/08 05:28:57;;;;;;;7.68;5.20;;;17.10;99.90;;;;;;5088016;28;20263;-80
2023/07/08 05:31:24;;;;;;;10.35;5.50;;;17.10;99.90;;;;;;5093384;28;20228;-80
2023/07/08 05:33:51;;;;;;;6.70;4.97;;;17.20;99.90;;;;;;5090829;28;20221;-78
2023/07/08 05:36:18;;;;;;;7.15;4.60;;;17.20;99.90;;;;;;5088296;28;20236;-79
2023/07/08 05:38:46;;;;;;;30.20;6.05;;;17.40;99.90;;;;;;5093315;28;20736;-78
2023/07/08 05:41:13;;;;;;;8.00;5.20;;;17.50;99.90;;;;;;5089338;28;20231;-79
2023/07/08 05:43:40;;;;;;;5.80;4.75;;;17.90;99.90;;;;;;5088076;28;20211;-79
2023/07/08 05:46:06;;;;;;;8.38;4.70;;;18.70;99.90;;;;;;5091518;28;20294;-79
2023/07/08 05:48:33;;;;;;;8.13;5.30;;;19.20;99.90;;;;;;5090632;28;20581;-79
2023/07/08 05:51:00;;;;;;;7.50;4.70;;;19.00;99.90;;;;;;5088232;28;20217;-79
2023/07/08 05:53:27;;;;;;;11.57;5.72;;;18.60;99.90;;;;;;5090726;28;20202;-79
2023/07/08 05:55:55;;;;;;;8.60;5.03;;;18.60;99.90;;;;;;5096447;28;20667;-78
2023/07/08 05:58:23;;;;;;;7.50;4.60;;;19.40;99.90;;;;;;5089126;28;20202;-79
2023/07/08 06:00:56;;;;;;;8.15;4.63;;;18.60;99.90;;;;;;5082629;28;20209;-79
2023/07/08 06:03:23;;;;;;;7.60;4.72;;;18.30;99.90;;;;;;5090645;28;20201;-79
2023/07/08 06:05:50;;;;;;;9.85;4.80;;;18.20;99.90;;;;;;5084251;28;20732;-78
2023/07/08 06:08:17;;;;;;;7.45;5.20;;;18.30;99.90;;;;;;5083457;28;20278;-79
2023/07/08 06:10:45;;;;;;;8.35;5.30;;;18.20;99.90;;;;;;5093820;28;20209;-78
2023/07/08 06:13:13;;;;;;;5.85;5.05;;;18.30;99.90;;;;;;5095186;28;20212;-78
2023/07/08 06:15:40;;;;;;;8.10;5.50;;;18.40;99.90;;;;;;5093830;28;20205;-78
2023/07/08 06:18:07;;;;;;;8.50;5.43;;;18.60;99.90;;;;;;5087398;28;20225;-79
2023/07/08 06:20:34;;;;;;;6.38;4.70;;;18.60;99.90;;;;;;5090748;28;20209;-78
2023/07/08 06:23:01;;;;;;;8.60;5.20;;;18.50;99.90;;;;;;5082903;28;20226;-78
2023/07/08 06:25:28;;;;;;;7.88;4.70;;;18.70;99.90;;;;;;5093580;28;20197;-78
2023/07/08 06:27:55;;;;;;;9.90;4.82;;;18.90;99.90;;;;;;5087872;28;20220;-78
2023/07/08 06:30:23;;;;;;;9.23;5.00;;;19.00;99.90;;;;;;5085947;28;20194;-78
2023/07/08 06:32:50;;;;;;;6.43;4.80;;;19.00;99.90;;;;;;5093176;28;20253;-79
2023/07/08 06:35:17;;;;;;;5.82;4.82;;;19.10;99.90;;;;;;5088082;28;20229;-79
2023/07/08 06:37:44;;;;;;;5.38;4.88;;;19.10;99.90;;;;;;5098345;28;20232;-79
2023/07/08 06:40:12;;;;;;;6.82;5.05;;;19.10;99.90;;;;;;5088468;28;20215;-80
2023/07/08 06:42:39;;;;;;;6.63;4.93;;;19.10;99.90;;;;;;5080723;28;20222;-80
2023/07/08 06:45:06;;;;;;;8.07;5.40;;;19.30;99.90;;;;;;5086844;28;20294;-79
2023/07/08 06:47:35;;;;;;;5.75;4.22;;;19.20;99.90;;;;;;5090507;28;20228;-80
2023/07/08 06:50:02;;;;;;;6.47;4.65;;;19.40;99.90;;;;;;5094334;28;20288;-80
2023/07/08 06:52:33;;;;;;;5.95;4.65;;;19.40;99.90;;;;;;5084930;28;20316;-78
2023/07/08 06:55:00;;;;;;;7.60;4.68;;;19.50;99.90;;;;;;5086549;28;20202;-79
2023/07/08 06:57:27;;;;;;;6.63;4.63;;;19.60;99.90;;;;;;5082647;28;20236;-78
2023/07/08 06:59:54;;;;;;;7.20;4.80;;;19.60;99.90;;;;;;5087472;28;20205;-78
2023/07/08 07:02:21;;;;;;;8.40;4.68;;;19.70;99.90;;;;;;5093832;28;20294;-81
2023/07/08 07:04:49;;;;;;;5.93;4.38;;;19.70;99.90;;;;;;5087410;28;20225;-79
2023/07/08 07:07:16;;;;;;;5.65;4.82;;;19.80;99.90;;;;;;5090263;28;20261;-79
2023/07/08 07:09:43;;;;;;;9.65;4.45;;;19.90;99.90;;;;;;5084645;28;20206;-81
2023/07/08 07:12:10;;;;;;;9.18;4.90;;;19.90;99.90;;;;;;5091334;28;20236;-81
2023/07/08 07:14:37;;;;;;;6.75;4.45;;;20.00;99.90;;;;;;5086380;28;20270;-79
2023/07/08 07:17:04;;;;;;;10.10;5.53;;;20.10;99.90;;;;;;5093379;28;20220;-80
2023/07/08 07:19:30;;;;;;;6.32;4.57;;;20.20;99.90;;;;;;5100161;28;20315;-81
2023/07/08 07:21:59;;;;;;;8.15;4.55;;;20.30;99.90;;;;;;5096962;28;20277;-78
2023/07/08 07:24:25;;;;;;;5.45;4.50;;;20.30;99.90;;;;;;5098015;28;20201;-78
2023/07/08 07:26:52;;;;;;;8.73;5.38;;;20.40;99.90;;;;;;5096319;28;20628;-80
2023/07/08 07:29:19;;;;;;;8.75;4.80;;;20.70;99.90;;;;;;5094732;28;20229;-80
2023/07/08 07:31:48;;;;;;;5.18;4.60;;;20.80;99.90;;;;;;5101033;28;20229;-78
2023/07/08 07:34:15;;;;;;;6.45;4.72;;;20.80;99.90;;;;;;5091419;28;20269;-80
2023/07/08 07:36:42;;;;;;;8.15;4.88;;;20.70;99.90;;;;;;5095781;28;20309;-79
2023/07/08 07:39:12;;;;;;;5.97;4.65;;;20.90;99.90;;;;;;5092348;28;20650;-80
2023/07/08 07:41:39;;;;;;;7.85;5.57;;;20.90;99.90;;;;;;5093380;28;20249;-80
2023/07/08 07:44:06;;;;;;;6.47;4.93;;;21.10;99.90;;;;;;5099617;28;20708;-78
2023/07/08 07:46:33;;;;;;;9.23;5.47;;;21.20;99.90;;;;;;5088211;28;20206;-80
2023/07/08 07:48:59;;;;;;;5.75;4.47;;;21.20;99.90;;;;;;5098714;28;20653;-80
2023/07/08 07:51:26;;;;;;;7.35;5.05;;;21.40;99.90;;;;;;5094566;28;20254;-79
2023/07/08 07:53:54;;;;;;;6.43;4.80;;;21.30;99.90;;;;;;5094153;28;20215;-80
2023/07/08 07:56:22;;;;;;;8.18;4.63;;;21.50;99.90;;;;;;5090585;28;20210;-80
2023/07/08 07:58:49;;;;;;;7.00;4.90;;;21.60;99.90;;;;;;5089442;28;20213;-80
2023/07/08 08:01:16;;;;;;;13.80;5.30;;;21.70;99.90;;;;;;5086780;28;20217;-81
2023/07/08 08:03:43;;;;;;;7.07;4.88;;;21.80;99.90;;;;;;5098099;28;20209;-81
2023/07/08 08:06:09;;;;;;;7.05;4.88;;;21.70;99.90;;;;;;5091387;28;20218;-79
2023/07/08 08:08:36;;;;;;;6.18;4.95;;;21.80;99.90;;;;;;5090658;28;20637;-79
2023/07/08 08:11:03;;;;;;;5.72;5.00;;;22.20;99.90;;;;;;5094149;28;20491;-79
2023/07/08 08:13:31;;;;;;;7.82;4.72;;;22.30;99.90;;;;;;5095274;28;20209;-79
2023/07/08 08:15:59;;;;;;;6.25;5.05;;;22.40;99.90;;;;;;5086484;28;20237;-80
2023/07/08 08:18:26;;;;;;;6.68;4.75;;;22.30;99.90;;;;;;5086652;28;20226;-79
2023/07/08 08:20:53;;;;;;;5.63;4.38;;;22.50;99.90;;;;;;5083667;28;20650;-79
2023/07/08 08:23:19;;;;;;;6.25;5.10;;;22.50;99.90;;;;;;5087966;28;20281;-79
2023/07/08 08:25:46;;;;;;;8.15;4.95;;;22.50;99.90;;;;;;5090857;28;20202;-80
2023/07/08 08:28:13;;;;;;;5.60;4.68;;;22.70;99.90;;;;;;5085302;28;20213;-79
2023/07/08 08:30:41;;;;;;;7.03;5.00;;;22.60;99.90;;;;;;5087299;28;20202;-79
2023/07/08 08:33:08;;;;;;;6.18;4.70;;;22.60;99.90;;;;;;5091875;28;20220;-79
2023/07/08 08:35:35;;;;;;;8.95;4.60;;;22.70;99.90;;;;;;5079453;28;20206;-78
2023/07/08 08:38:02;;;;;;;5.03;4.30;;;22.70;99.90;;;;;;5088248;28;20295;-79
2023/07/08 08:40:31;;;;;;;9.02;4.97;;;22.80;99.90;;;;;;5088372;28;20210;-79
2023/07/08 08:43:01;;;;;;;7.78;5.43;;;22.80;99.90;;;;;;5091242;28;20229;-79
2023/07/08 08:45:30;;;;;;;5.75;4.40;;;22.80;99.90;;;;;;5087750;28;20236;-79
2023/07/08 08:48:02;;;;;;;7.53;5.53;;;22.90;99.90;;;;;;5088142;28;20194;-79
2023/07/08 08:50:33;;;;;;;7.78;5.00;;;23.20;99.90;;;;;;5089440;28;20206;-79
2023/07/08 08:53:03;;;;;;;6.93;4.82;;;23.30;99.90;;;;;;5089249;28;20217;-80
2023/07/08 08:55:31;;;;;;;7.30;4.88;;;23.60;99.90;;;;;;5087622;28;20330;-80
2023/07/08 08:58:11;;;;;;;8.15;5.28;;;23.90;99.90;;;;;;5089890;28;20304;-80
2023/07/08 09:00:54;;;;;;;8.70;5.82;;;24.20;99.90;;;;;;5088622;28;20210;-80
2023/07/08 09:03:34;;;;;;;8.07;4.97;;;24.30;99.90;;;;;;5084008;28;20202;-80
2023/07/08 09:06:10;;;;;;;8.50;5.15;;;24.70;99.90;;;;;;5086631;28;20210;-80
2023/07/08 09:08:38;;;;;;;7.82;5.63;;;24.90;99.90;;;;;;5085036;28;20213;-79
2023/07/08 09:11:33;;;;;;;9.15;6.03;;;25.00;99.90;;;;;;5089704;28;20230;-80
2023/07/08 09:14:00;;;;;;;7.53;5.63;;;25.20;99.90;;;;;;5082166;28;20212;-80
2023/07/08 09:16:33;;;;;;;7.93;5.53;;;25.40;99.90;;;;;;5085529;28;20288;-79
2023/07/08 09:19:07;;;;;;;8.77;5.43;;;25.50;99.90;;;;;;5086098;28;20218;-79
2023/07/08 09:21:38;;;;;;;7.97;5.38;;;25.70;99.90;;;;;;5092149;28;20528;-79
2023/07/08 09:24:11;;;;;;;9.50;5.88;;;25.70;99.90;;;;;;5086176;28;20209;-79
2023/07/08 09:26:38;;;;;;;10.35;5.70;;;26.40;99.90;;;;;;5090012;28;20201;-79
2023/07/08 09:29:10;;;;;;;7.40;5.38;;;26.20;99.90;;;;;;5086109;28;20206;-80
2023/07/08 09:31:42;;;;;;;6.63;5.18;;;26.20;99.90;;;;;;5088878;28;20322;-80
2023/07/08 09:34:13;;;;;;;10.00;5.57;;;26.40;99.90;;;;;;5089401;28;20202;-79
2023/07/08 09:36:43;;;;;;;7.93;5.22;;;26.60;99.90;;;;;;5084083;28;20210;-79
2023/07/08 09:39:12;;;;;;;9.00;5.60;;;26.90;99.90;;;;;;5094607;28;20205;-80
2023/07/08 09:41:40;;;;;;;6.25;5.05;;;27.50;99.90;;;;;;5090740;28;20253;-82
2023/07/08 09:44:15;;;;;;;7.13;5.25;;;27.20;99.90;;;;;;5092193;28;20645;-84
2023/07/08 09:46:43;;;;;;;8.95;5.18;;;26.90;99.90;;;;;;5089821;28;20295;-81
2023/07/08 09:49:24;;;;;;;11.63;6.03;;;27.30;99.90;;;;;;5092103;28;20208;-79
2023/07/08 09:51:55;;;;;;;8.38;5.45;;;27.80;99.90;;;;;;5084394;28;20748;-79
2023/07/08 09:54:24;;;;;;;9.25;5.50;;;28.20;99.90;;;;;;5089806;28;20213;-80
2023/07/08 09:56:58;;;;;;;8.35;5.22;;;28.90;99.90;;;;;;5085746;28;20305;-79
2023/07/08 09:59:31;;;;;;;9.00;5.57;;;29.00;99.90;;;;;;5082322;28;20206;-80
2023/07/08 10:02:02;;;;;;;7.07;5.30;;;28.50;99.90;;;;;;5077429;28;20230;-80
2023/07/08 10:04:30;;;;;;;10.75;5.70;;;28.80;99.90;;;;;;5094289;28;20213;-80
2023/07/08 10:06:57;;;;;;;7.03;5.28;;;29.70;99.90;;;;;;5092888;28;20733;-80
2023/07/08 10:09:26;;;;;;;8.20;5.85;;;29.00;99.90;;;;;;5088483;28;20205;-79
2023/07/08 10:11:58;;;;;;;7.68;5.90;;;29.50;99.90;;;;;;5090998;28;20235;-80
2023/07/08 10:14:31;;;;;;;11.13;6.10;;;28.80;99.90;;;;;;5088536;28;20208;-79
2023/07/08 10:16:58;;;;;;;10.07;5.70;;;29.00;99.90;;;;;;5086784;28;20208;-80
2023/07/08 10:19:25;;;;;;;8.80;6.10;;;28.60;99.90;;;;;;5087765;28;20204;-80
2023/07/08 10:22:16;;;;;;;6.82;5.50;;;28.70;99.90;;;;;;5089338;28;20309;-80
2023/07/08 10:24:58;;;;;;;9.32;6.05;;;28.80;99.90;;;;;;5093608;28;20575;-79
2023/07/08 10:27:34;;;;;;;8.63;5.80;;;29.20;99.90;;;;;;5084765;28;20201;-80
2023/07/08 10:30:11;;;;;;;7.57;6.05;;;29.90;99.90;;;;;;5082949;28;20205;-80
2023/07/08 10:32:52;;;;;;;10.30;6.13;;;29.50;99.90;;;;;;5083293;28;20293;-79
2023/07/08 10:35:22;;;;;;;9.70;6.30;;;29.70;99.90;;;;;;5082845;28;20251;-79
2023/07/08 10:38:05;;;;;;;12.13;6.45;;;30.00;99.90;;;;;;5091810;28;20264;-79
2023/07/08 10:40:48;;;;;;;9.48;5.72;;;30.40;99.90;;;;;;5092416;28;20201;-79
2023/07/08 10:43:37;;;;;;;9.93;5.47;;;30.00;99.90;;;;;;5080913;28;20221;-80
2023/07/08 10:46:16;;;;;;;8.07;5.72;;;29.80;99.90;;;;;;5089600;28;20202;-80
2023/07/08 10:48:58;;;;;;;6.82;5.00;;;30.30;99.90;;;;;;5088142;28;20193;-81
2023/07/08 10:51:34;;;;;;;6.65;4.70;;;30.60;99.90;;;;;;5082662;28;20769;-79
2023/07/08 10:54:20;;;;;;;6.32;4.95;;;30.90;99.90;;;;;;5091277;28;20202;-81
2023/07/08 10:56:52;;;;;;;5.25;4.55;;;31.00;63.00;;;;;;5087286;28;20210;-80
2023/07/08 10:59:44;;;;;;;4.85;4.40;;;30.60;31.00;;;;;;5085531;28;20220;-81
2023/07/08 11:02:56;;;;;;;8.65;5.07;;;30.60;46.10;;;;;;5089955;28;20272;-80
2023/07/08 11:05:31;;;;;;;5.03;4.32;;;30.60;50.10;;;;;;5082685;28;20570;-81
2023/07/08 11:08:04;;;;;;;6.22;4.82;;;30.20;24.40;;;;;;5091181;28;20201;-80
2023/07/08 11:10:41;;;;;;;43.15;7.97;;;30.60;26.50;;;;;;5089363;28;20238;-79
2023/07/08 11:13:13;;;;;;;5.25;4.75;;;30.50;11.60;;;;;;5088332;28;20658;-79
2023/07/08 11:15:53;;;;;;;8.30;4.35;;;30.50;79.40;;;;;;5084795;28;20298;-79
2023/07/08 11:18:26;;;;;;;4.75;4.30;;;31.10;28.80;;;;;;5083535;28;20232;-78
2023/07/08 11:20:56;;;;;;;7.82;4.70;;;31.70;36.10;;;;;;5084718;28;20666;-79
2023/07/08 11:23:27;;;;;;;5.35;4.30;;;30.60;18.70;;;;;;5085511;28;20217;-80
2023/07/08 11:26:16;;;;;;;5.50;3.97;;;30.80;29.30;;;;;;5087007;28;20208;-80
2023/07/08 11:28:44;;;;;;;6.05;4.70;;;30.70;1.00;;;;;;5090491;28;20198;-80
2023/07/08 11:31:12;;;;;;;5.32;4.28;;;30.50;29.60;;;;;;5089869;28;20252;-79
2023/07/08 11:33:40;;;;;;;4.97;4.47;;;30.60;19.20;;;;;;5087493;28;20209;-80
2023/07/08 11:36:09;;;;;;;5.35;4.50;;;30.80;1.00;;;;;;5095674;28;20288;-79
2023/07/08 11:38:38;;;;;;;4.88;4.30;;;30.80;1.00;;;;;;5092703;28;20228;-80
2023/07/08 11:41:14;;;;;;;7.63;4.88;;;30.60;2.50;;;;;;5093121;28;20226;-80
2023/07/08 11:43:47;;;;;;;6.85;4.07;;;30.80;69.20;;;;;;5093758;28;20207;-80
2023/07/08 11:46:18;;;;;;;6.47;4.50;;;31.40;1.00;;;;;;5081333;28;20201;-80
2023/07/08 11:48:48;;;;;;;4.93;4.30;;;31.00;1.00;;;;;;5085052;28;20224;-81
2023/07/08 11:51:20;;;;;;;5.15;4.65;;;31.00;1.00;;;;;;5090029;28;20225;-82
2023/07/08 11:53:52;;;;;;;5.75;4.55;;;31.40;1.00;;;;;;5084540;28;20582;-81
2023/07/08 11:56:26;;;;;;;9.95;4.88;;;31.10;1.00;;;;;;5075137;28;20259;-81
2023/07/08 11:59:14;;;;;;;5.45;4.13;;;31.20;1.00;;;;;;5083961;28;20281;-82
2023/07/08 12:01:48;;;;;;;7.45;4.80;;;31.20;1.00;;;;;;5083921;28;20244;-82
2023/07/08 12:04:35;;;;;;;6.93;4.78;;;31.40;1.00;;;;;;5084390;28;20666;-82
2023/07/08 12:07:16;;;;;;;4.90;4.40;;;31.50;1.00;;;;;;5082268;28;20206;-81
2023/07/08 12:09:49;;;;;;;7.10;4.43;;;31.30;1.00;;;;;;5082461;28;20213;-79
2023/07/08 12:12:23;;;;;;;6.07;4.93;;;31.40;1.00;;;;;;5084009;28;20234;-79
2023/07/08 12:14:51;;;;;;;8.05;4.60;;;31.20;1.00;;;;;;5080930;28;20287;-79
2023/07/08 12:17:18;;;;;;;4.88;4.38;;;30.90;1.00;;;;;;5093052;28;20642;-79
2023/07/08 12:19:48;;;;;;;6.00;4.18;;;31.00;1.00;;;;;;5089336;28;20214;-81
2023/07/08 12:22:14;;;;;;;5.05;4.30;;;31.00;1.00;;;;;;5090964;28;20217;-79
2023/07/08 12:24:41;;;;;;;5.00;4.30;;;31.00;1.00;;;;;;5084076;28;20198;-81
2023/07/08 12:27:10;;;;;;;7.57;4.65;;;31.00;1.00;;;;;;5087219;28;20203;-80
2023/07/08 12:29:39;;;;;;;5.35;4.43;;;31.10;1.00;;;;;;5086432;28;20208;-79
2023/07/08 12:32:09;;;;;;;9.00;4.78;;;31.60;1.00;;;;;;5081915;28;20232;-79
2023/07/08 12:34:36;;;;;;;7.10;4.43;;;31.60;1.00;;;;;;5085478;28;20294;-79
2023/07/08 12:37:04;;;;;;;8.55;4.28;;;31.40;1.00;;;;;;5084888;28;20208;-80
2023/07/08 12:39:34;;;;;;;5.72;4.45;;;31.40;1.00;;;;;;5093214;28;20225;-80
2023/07/08 12:42:04;;;;;;;5.38;4.20;;;31.70;1.00;;;;;;5084786;28;20218;-80
2023/07/08 12:44:31;;;;;;;4.65;4.25;;;31.60;1.00;;;;;;5089026;28;20638;-79
2023/07/08 12:47:03;;;;;;;7.05;3.97;;;31.60;1.00;;;;;;5094122;28;20227;-80
2023/07/08 12:49:30;;;;;;;5.55;4.75;;;31.50;1.00;;;;;;5080643;28;20208;-80
2023/07/08 12:51:57;;;;;;;7.28;4.40;;;31.20;1.00;;;;;;5076229;28;20233;-80
2023/07/08 12:54:25;;;;;;;4.93;4.40;;;31.30;1.00;;;;;;5079281;28;20225;-80
2023/07/08 12:56:53;;;;;;;8.48;5.10;;;31.10;1.00;;;;;;5086490;28;20210;-80
2023/07/08 12:59:23;;;;;;;7.00;4.50;;;31.50;1.00;;;;;;5088005;28;20308;-80